sensor_id;sensor_type;location;lat;lon;timestamp;pressure;altitude;pressure_sealevel;temperature;humidity
74594;BME280;63097;51.872;4.460;2022-08-30T00:01:44;102202.72;;;25.25;50.54
74594;BME280;63097;51.872;4.460;2022-08-30T00:04:10;102199.00;;;25.25;50.13
74594;BME280;63097;51.872;4.460;2022-08-30T00:06:35;102208.41;;;25.25;50.39
74594;BME280;63097;51.872;4.460;2022-08-30T00:09:00;102205.56;;;25.25;50.13
74594;BME280;63097;51.872;4.460;2022-08-30T00:11:27;102203.84;;;25.24;50.53
74594;BME280;63097;51.872;4.460;2022-08-30T00:13:53;102202.72;;;25.25;50.18
74594;BME280;63097;51.872;4.460;2022-08-30T00:16:21;102196.16;;;25.25;50.17
74594;BME280;63097;51.872;4.460;2022-08-30T00:18:46;102196.16;;;25.25;50.73
74594;BME280;63097;51.872;4.460;2022-08-30T00:21:12;102208.41;;;25.25;50.18
74594;BME280;63097;51.872;4.460;2022-08-30T00:23:38;102195.84;;;25.26;50.41
74594;BME280;63097;51.872;4.460;2022-08-30T00:26:05;102204.38;;;25.26;50.39
74594;BME280;63097;51.872;4.460;2022-08-30T00:28:31;102195.84;;;25.26;50.15
74594;BME280;63097;51.872;4.460;2022-08-30T00:30:57;102193.84;;;25.27;50.24
74594;BME280;63097;51.872;4.460;2022-08-30T00:33:22;102195.72;;;25.31;51.12
74594;BME280;63097;51.872;4.460;2022-08-30T00:35:48;102201.09;;;25.33;50.44
74594;BME280;63097;51.872;4.460;2022-08-30T00:38:13;102198.91;;;25.30;50.54
74594;BME280;63097;51.872;4.460;2022-08-30T00:40:41;102198.03;;;25.29;50.90
74594;BME280;63097;51.872;4.460;2022-08-30T00:43:12;102199.53;;;25.27;50.88
74594;BME280;63097;51.872;4.460;2022-08-30T00:45:40;102203.53;;;25.26;50.62
74594;BME280;63097;51.872;4.460;2022-08-30T00:48:06;102195.00;;;25.26;50.96
74594;BME280;63097;51.872;4.460;2022-08-30T00:50:37;102209.22;;;25.26;50.92
74594;BME280;63097;51.872;4.460;2022-08-30T00:53:05;102197.84;;;25.26;51.15
74594;BME280;63097;51.872;4.460;2022-08-30T00:55:31;102205.25;;;25.27;50.83
74594;BME280;63097;51.872;4.460;2022-08-30T00:57:59;102205.25;;;25.27;50.76
74594;BME280;63097;51.872;4.460;2022-08-30T01:00:26;102203.53;;;25.26;50.77
74594;BME280;63097;51.872;4.460;2022-08-30T01:02:51;102207.56;;;25.25;50.82
74594;BME280;63097;51.872;4.460;2022-08-30T01:05:17;102205.84;;;25.24;51.32
74594;BME280;63097;51.872;4.460;2022-08-30T01:07:43;102205.56;;;25.25;51.32
74594;BME280;63097;51.872;4.460;2022-08-30T01:10:13;102199.00;;;25.25;50.87
74594;BME280;63097;51.872;4.460;2022-08-30T01:12:41;102205.56;;;25.25;51.40
74594;BME280;63097;51.872;4.460;2022-08-30T01:15:08;102201.00;;;25.24;50.99
74594;BME280;63097;51.872;4.460;2022-08-30T01:17:34;102201.88;;;25.25;51.21
74594;BME280;63097;51.872;4.460;2022-08-30T01:20:05;102203.53;;;25.26;50.89
74594;BME280;63097;51.872;4.460;2022-08-30T01:22:38;102205.56;;;25.25;50.97
74594;BME280;63097;51.872;4.460;2022-08-30T01:25:07;102204.72;;;25.25;51.18
74594;BME280;63097;51.872;4.460;2022-08-30T01:27:36;102213.25;;;25.25;50.89
74594;BME280;63097;51.872;4.460;2022-08-30T01:30:04;102208.41;;;25.25;50.81
74594;BME280;63097;51.872;4.460;2022-08-30T01:32:30;102213.88;;;25.22;51.61
74594;BME280;63097;51.872;4.460;2022-08-30T01:34:56;102211.56;;;25.24;51.61
74594;BME280;63097;51.872;4.460;2022-08-30T01:37:29;102212.41;;;25.24;51.14
74594;BME280;63097;51.872;4.460;2022-08-30T01:39:55;102213.59;;;25.23;51.15
74594;BME280;63097;51.872;4.460;2022-08-30T01:42:21;102209.56;;;25.24;51.10
74594;BME280;63097;51.872;4.460;2022-08-30T01:44:47;102199.34;;;25.23;51.52
74594;BME280;63097;51.872;4.460;2022-08-30T01:47:12;102205.84;;;25.24;51.41
74594;BME280;63097;51.872;4.460;2022-08-30T01:49:38;102199.34;;;25.23;51.45
74594;BME280;63097;51.872;4.460;2022-08-30T01:52:04;102197.31;;;25.24;51.69
74594;BME280;63097;51.872;4.460;2022-08-30T01:54:31;102201.00;;;25.24;52.01
74594;BME280;63097;51.872;4.460;2022-08-30T01:56:57;102197.03;;;25.25;51.69
74594;BME280;63097;51.872;4.460;2022-08-30T01:59:22;102199.88;;;25.25;51.72
74594;BME280;63097;51.872;4.460;2022-08-30T02:01:47;102198.16;;;25.24;51.68
74594;BME280;63097;51.872;4.460;2022-08-30T02:04:13;102193.94;;;25.22;51.89
74594;BME280;63097;51.872;4.460;2022-08-30T02:06:39;102203.66;;;25.21;51.84
74594;BME280;63097;51.872;4.460;2022-08-30T02:09:04;102203.66;;;25.21;52.01
74594;BME280;63097;51.872;4.460;2022-08-30T02:11:30;102201.34;;;25.23;51.77
74594;BME280;63097;51.872;4.460;2022-08-30T02:13:55;102210.72;;;25.23;51.94
74594;BME280;63097;51.872;4.460;2022-08-30T02:16:22;102208.19;;;25.22;51.72
74594;BME280;63097;51.872;4.460;2022-08-30T02:18:48;102203.66;;;25.21;52.14
74594;BME280;63097;51.872;4.460;2022-08-30T02:21:14;102209.03;;;25.22;52.17
74594;BME280;63097;51.872;4.460;2022-08-30T02:23:40;102196.78;;;25.22;51.97
74594;BME280;63097;51.872;4.460;2022-08-30T02:26:06;102197.09;;;25.20;52.21
74594;BME280;63097;51.872;4.460;2022-08-30T02:28:31;102200.81;;;25.21;52.03
74594;BME280;63097;51.872;4.460;2022-08-30T02:30:57;102191.94;;;25.22;52.39
74594;BME280;63097;51.872;4.460;2022-08-30T02:33:22;102192.78;;;25.23;52.39
74594;BME280;63097;51.872;4.460;2022-08-30T02:35:47;102187.94;;;25.23;52.09
74594;BME280;63097;51.872;4.460;2022-08-30T02:38:13;102191.63;;;25.24;52.41
74594;BME280;63097;51.872;4.460;2022-08-30T02:40:39;102200.69;;;25.26;53.04
74594;BME280;63097;51.872;4.460;2022-08-30T02:43:04;102194.78;;;25.22;52.21
74594;BME280;63097;51.872;4.460;2022-08-30T02:45:29;102197.97;;;25.21;52.18
74594;BME280;63097;51.872;4.460;2022-08-30T02:47:57;102199.13;;;25.20;52.72
74594;BME280;63097;51.872;4.460;2022-08-30T02:50:24;102187.94;;;25.23;52.52
74594;BME280;63097;51.872;4.460;2022-08-30T02:52:49;102191.41;;;25.20;52.91
74594;BME280;63097;51.872;4.460;2022-08-30T02:55:16;102189.41;;;25.21;52.63
74594;BME280;63097;51.872;4.460;2022-08-30T02:57:41;102197.63;;;25.22;52.77
74594;BME280;63097;51.872;4.460;2022-08-30T03:00:08;102181.84;;;25.16;52.59
74594;BME280;63097;51.872;4.460;2022-08-30T03:02:33;102178.66;;;25.18;52.89
74594;BME280;63097;51.872;4.460;2022-08-30T03:04:59;102175.16;;;25.21;52.71
74594;BME280;63097;51.872;4.460;2022-08-30T03:07:25;102175.69;;;25.23;52.47
74594;BME280;63097;51.872;4.460;2022-08-30T03:09:51;102180.22;;;25.24;53.00
74594;BME280;63097;51.872;4.460;2022-08-30T03:12:16;102167.81;;;25.20;52.58
74594;BME280;63097;51.872;4.460;2022-08-30T03:14:41;102172.66;;;25.19;53.25
74594;BME280;63097;51.872;4.460;2022-08-30T03:17:08;102163.47;;;25.22;52.79
74594;BME280;63097;51.872;4.460;2022-08-30T03:19:34;102168.81;;;25.24;53.12
74594;BME280;63097;51.872;4.460;2022-08-30T03:22:00;102166.31;;;25.22;53.19
74594;BME280;63097;51.872;4.460;2022-08-30T03:24:25;102158.41;;;25.19;53.05
74594;BME280;63097;51.872;4.460;2022-08-30T03:26:51;102162.94;;;25.20;52.73
74594;BME280;63097;51.872;4.460;2022-08-30T03:29:16;102165.44;;;25.22;52.43
74594;BME280;63097;51.872;4.460;2022-08-30T03:31:41;102168.31;;;25.22;53.23
74594;BME280;63097;51.872;4.460;2022-08-30T03:34:07;102160.94;;;25.21;52.80
74594;BME280;63097;51.872;4.460;2022-08-30T03:36:32;102164.31;;;25.23;53.30
74594;BME280;63097;51.872;4.460;2022-08-30T03:38:57;102159.25;;;25.20;53.38
74594;BME280;63097;51.872;4.460;2022-08-30T03:41:23;102165.44;;;25.22;53.44
74594;BME280;63097;51.872;4.460;2022-08-30T03:43:49;102164.31;;;25.23;53.30
74594;BME280;63097;51.872;4.460;2022-08-30T03:46:14;102163.13;;;25.24;52.94
74594;BME280;63097;51.872;4.460;2022-08-30T03:48:40;102154.06;;;25.22;52.95
74594;BME280;63097;51.872;4.460;2022-08-30T03:51:05;102163.13;;;25.24;53.21
74594;BME280;63097;51.872;4.460;2022-08-30T03:53:30;102163.97;;;25.24;53.10
74594;BME280;63097;51.872;4.460;2022-08-30T03:55:56;102164.09;;;25.19;53.40
74594;BME280;63097;51.872;4.460;2022-08-30T03:58:21;102165.78;;;25.20;53.05
74594;BME280;63097;51.872;4.460;2022-08-30T04:00:46;102158.94;;;25.21;53.19
74594;BME280;63097;51.872;4.460;2022-08-30T04:03:12;102162.09;;;25.20;53.51
74594;BME280;63097;51.872;4.460;2022-08-30T04:05:37;102158.41;;;25.19;53.66
74594;BME280;63097;51.872;4.460;2022-08-30T04:08:03;102168.94;;;25.19;53.16
74594;BME280;63097;51.872;4.460;2022-08-30T04:10:28;102157.56;;;25.19;53.31
74594;BME280;63097;51.872;4.460;2022-08-30T04:12:53;102159.25;;;25.20;53.33
74594;BME280;63097;51.872;4.460;2022-08-30T04:15:19;102156.91;;;25.22;53.42
74594;BME280;63097;51.872;4.460;2022-08-30T04:17:45;102161.78;;;25.21;53.54
74594;BME280;63097;51.872;4.460;2022-08-30T04:20:10;102154.72;;;25.19;53.76
74594;BME280;63097;51.872;4.460;2022-08-30T04:22:35;102155.88;;;25.18;53.09
74594;BME280;63097;51.872;4.460;2022-08-30T04:25:02;102160.72;;;25.17;53.60
74594;BME280;63097;51.872;4.460;2022-08-30T04:27:28;102168.09;;;25.18;53.48
74594;BME280;63097;51.872;4.460;2022-08-30T04:29:53;102166.63;;;25.21;53.77
74594;BME280;63097;51.872;4.460;2022-08-30T04:32:18;102158.72;;;25.18;53.23
74594;BME280;63097;51.872;4.460;2022-08-30T04:34:44;102168.41;;;25.17;53.84
74594;BME280;63097;51.872;4.460;2022-08-30T04:37:09;102168.94;;;25.19;53.52
74594;BME280;63097;51.872;4.460;2022-08-30T04:39:34;102169.16;;;25.22;53.48
74594;BME280;63097;51.872;4.460;2022-08-30T04:41:59;102176.84;;;25.22;53.62
74594;BME280;63097;51.872;4.460;2022-08-30T04:44:25;102180.53;;;25.22;53.48
74594;BME280;63097;51.872;4.460;2022-08-30T04:46:50;102173.78;;;25.18;53.71
74594;BME280;63097;51.872;4.460;2022-08-30T04:49:15;102187.22;;;25.18;54.10
74594;BME280;63097;51.872;4.460;2022-08-30T04:51:41;102177.81;;;25.17;53.34
74594;BME280;63097;51.872;4.460;2022-08-30T04:54:06;102193.72;;;25.18;53.40
74594;BME280;63097;51.872;4.460;2022-08-30T04:56:31;102193.94;;;25.22;53.28
74594;BME280;63097;51.872;4.460;2022-08-30T04:58:57;102182.34;;;25.18;53.93
74594;BME280;63097;51.872;4.460;2022-08-30T05:01:25;102197.75;;;25.17;53.86
74594;BME280;63097;51.872;4.460;2022-08-30T05:03:52;102196.28;;;25.20;53.41
74594;BME280;63097;51.872;4.460;2022-08-30T05:06:19;102193.44;;;25.20;53.83
74594;BME280;63097;51.872;4.460;2022-08-30T05:08:45;102192.91;;;25.18;53.72
74594;BME280;63097;51.872;4.460;2022-08-30T05:11:10;102199.13;;;25.20;53.61
74594;BME280;63097;51.872;4.460;2022-08-30T05:13:36;102193.13;;;25.21;53.65
74594;BME280;63097;51.872;4.460;2022-08-30T05:16:04;102190.47;;;25.25;53.85
74594;BME280;63097;51.872;4.460;2022-08-30T05:18:30;102203.34;;;25.22;53.78
74594;BME280;63097;51.872;4.460;2022-08-30T05:21:10;102201.66;;;25.21;53.40
74594;BME280;63097;51.872;4.460;2022-08-30T05:23:37;102202.47;;;25.22;53.89
74594;BME280;63097;51.872;4.460;2022-08-30T05:26:08;102206.50;;;25.21;53.75
74594;BME280;63097;51.872;4.460;2022-08-30T05:28:34;102219.28;;;25.23;53.88
74594;BME280;63097;51.872;4.460;2022-08-30T05:31:00;102215.25;;;25.24;53.72
74594;BME280;63097;51.872;4.460;2022-08-30T05:33:26;102216.09;;;25.25;53.61
74594;BME280;63097;51.872;4.460;2022-08-30T05:35:52;102220.09;;;25.24;53.41
74594;BME280;63097;51.872;4.460;2022-08-30T05:38:17;102215.25;;;25.24;53.21
74594;BME280;63097;51.872;4.460;2022-08-30T05:40:43;102209.22;;;25.26;53.37
74594;BME280;63097;51.872;4.460;2022-08-30T05:43:09;102224.84;;;25.28;53.47
74594;BME280;63097;51.872;4.460;2022-08-30T05:45:34;102215.78;;;25.26;53.52
74594;BME280;63097;51.872;4.460;2022-08-30T05:48:00;102212.94;;;25.26;53.71
74594;BME280;63097;51.872;4.460;2022-08-30T05:50:25;102214.09;;;25.25;53.36
74594;BME280;63097;51.872;4.460;2022-08-30T05:52:50;102212.94;;;25.26;53.84
74594;BME280;63097;51.872;4.460;2022-08-30T05:55:15;102215.47;;;25.28;53.49
74594;BME280;63097;51.872;4.460;2022-08-30T05:57:41;102214.31;;;25.29;53.67
74594;BME280;63097;51.872;4.460;2022-08-30T06:00:09;102217.69;;;25.31;53.40
74594;BME280;63097;51.872;4.460;2022-08-30T06:02:35;102214.31;;;25.29;53.21
74594;BME280;63097;51.872;4.460;2022-08-30T06:05:02;102216.50;;;25.32;53.74
74594;BME280;63097;51.872;4.460;2022-08-30T06:07:27;102216.50;;;25.32;53.22
74594;BME280;63097;51.872;4.460;2022-08-30T06:09:52;102223.59;;;25.34;53.63
74594;BME280;63097;51.872;4.460;2022-08-30T06:12:18;102218.19;;;25.33;53.83
74594;BME280;63097;51.872;4.460;2022-08-30T06:14:43;102220.75;;;25.34;53.86
74594;BME280;63097;51.872;4.460;2022-08-30T06:17:08;102222.41;;;25.35;53.60
74594;BME280;63097;51.872;4.460;2022-08-30T06:19:34;102215.88;;;25.35;53.42
74594;BME280;63097;51.872;4.460;2022-08-30T06:21:59;102216.19;;;25.33;53.90
74594;BME280;63097;51.872;4.460;2022-08-30T06:24:24;102215.88;;;25.35;53.52
74594;BME280;63097;51.872;4.460;2022-08-30T06:26:50;102225.25;;;25.35;53.48
74594;BME280;63097;51.872;4.460;2022-08-30T06:29:18;102216.72;;;25.35;53.43
74594;BME280;63097;51.872;4.460;2022-08-30T06:31:43;102218.72;;;25.35;53.84
74594;BME280;63097;51.872;4.460;2022-08-30T06:34:09;102230.97;;;25.35;54.19
74594;BME280;63097;51.872;4.460;2022-08-30T06:36:34;102221.28;;;25.36;53.73
74594;BME280;63097;51.872;4.460;2022-08-30T06:39:00;102219.56;;;25.35;53.90
74594;BME280;63097;51.872;4.460;2022-08-30T06:41:27;102209.88;;;25.36;53.77
74594;BME280;63097;51.872;4.460;2022-08-30T06:43:54;102211.00;;;25.35;53.81
74594;BME280;63097;51.872;4.460;2022-08-30T06:46:25;102217.56;;;25.36;53.92
74594;BME280;63097;51.872;4.460;2022-08-30T06:48:51;102222.09;;;25.37;54.22
74594;BME280;63097;51.872;4.460;2022-08-30T06:51:21;102221.28;;;25.36;53.95
74594;BME280;63097;51.872;4.460;2022-08-30T06:53:47;102219.25;;;25.37;54.02
74594;BME280;63097;51.872;4.460;2022-08-30T06:56:12;102221.56;;;25.35;53.86
74594;BME280;63097;51.872;4.460;2022-08-30T06:58:38;102222.09;;;25.37;53.89
74594;BME280;63097;51.872;4.460;2022-08-30T07:01:04;102225.78;;;25.37;54.40
74594;BME280;63097;51.872;4.460;2022-08-30T07:03:30;102223.81;;;25.38;53.88
74594;BME280;63097;51.872;4.460;2022-08-30T07:05:56;102225.78;;;25.37;54.33
74594;BME280;63097;51.872;4.460;2022-08-30T07:08:22;102214.72;;;25.36;54.40
74594;BME280;63097;51.872;4.460;2022-08-30T07:10:49;102217.56;;;25.36;54.13
74594;BME280;63097;51.872;4.460;2022-08-30T07:13:15;102223.81;;;25.38;53.93
74594;BME280;63097;51.872;4.460;2022-08-30T07:15:42;102224.94;;;25.37;54.06
74594;BME280;63097;51.872;4.460;2022-08-30T07:18:12;102214.41;;;25.37;53.74
74594;BME280;63097;51.872;4.460;2022-08-30T07:20:37;102220.09;;;25.37;54.02
74594;BME280;63097;51.872;4.460;2022-08-30T07:23:02;102225.50;;;25.39;53.84
74594;BME280;63097;51.872;4.460;2022-08-30T07:25:28;102234.34;;;25.37;53.86
74594;BME280;63097;51.872;4.460;2022-08-30T07:27:53;102224.13;;;25.36;54.42
74594;BME280;63097;51.872;4.460;2022-08-30T07:30:19;102232.06;;;25.39;53.91
74594;BME280;63097;51.872;4.460;2022-08-30T07:32:44;102225.50;;;25.39;53.75
74594;BME280;63097;51.872;4.460;2022-08-30T07:35:09;102237.75;;;25.39;54.32
74594;BME280;63097;51.872;4.460;2022-08-30T07:37:34;102232.91;;;25.40;53.84
74594;BME280;63097;51.872;4.460;2022-08-30T07:40:00;102240.28;;;25.41;53.82
74594;BME280;63097;51.872;4.460;2022-08-30T07:42:26;102229.19;;;25.39;54.14
74594;BME280;63097;51.872;4.460;2022-08-30T07:44:51;102236.03;;;25.38;54.26
74594;BME280;63097;51.872;4.460;2022-08-30T07:47:16;102232.06;;;25.39;54.11
74594;BME280;63097;51.872;4.460;2022-08-30T07:49:42;102239.75;;;25.39;54.24
74594;BME280;63097;51.872;4.460;2022-08-30T07:52:08;102243.44;;;25.39;54.50
74594;BME280;63097;51.872;4.460;2022-08-30T07:54:33;102234.91;;;25.39;54.62
74594;BME280;63097;51.872;4.460;2022-08-30T07:56:59;102244.59;;;25.38;54.44
74594;BME280;63097;51.872;4.460;2022-08-30T07:59:24;102239.75;;;25.39;55.26
74594;BME280;63097;51.872;4.460;2022-08-30T08:01:49;102244.59;;;25.38;55.13
74594;BME280;63097;51.872;4.460;2022-08-30T08:04:15;102241.44;;;25.40;55.23
74594;BME280;63097;51.872;4.460;2022-08-30T08:06:40;102240.59;;;25.39;55.49
74594;BME280;63097;51.872;4.460;2022-08-30T08:09:07;102245.97;;;25.41;55.07
74594;BME280;63097;51.872;4.460;2022-08-30T08:11:34;102236.03;;;25.38;55.29
74594;BME280;63097;51.872;4.460;2022-08-30T08:14:00;102243.78;;;25.38;55.28
74594;BME280;63097;51.872;4.460;2022-08-30T08:16:27;102250.00;;;25.40;55.03
74594;BME280;63097;51.872;4.460;2022-08-30T08:18:54;102249.16;;;25.39;55.35
74594;BME280;63097;51.872;4.460;2022-08-30T08:21:21;102241.75;;;25.38;55.00
74594;BME280;63097;51.872;4.460;2022-08-30T08:23:46;102243.44;;;25.39;55.32
74594;BME280;63097;51.872;4.460;2022-08-30T08:26:12;102251.66;;;25.41;55.49
74594;BME280;63097;51.872;4.460;2022-08-30T08:28:37;102240.59;;;25.39;55.38
74594;BME280;63097;51.872;4.460;2022-08-30T08:31:30;102242.28;;;25.40;55.37
74594;BME280;63097;51.872;4.460;2022-08-30T08:33:55;102236.91;;;25.39;55.00
74594;BME280;63097;51.872;4.460;2022-08-30T08:36:21;102245.44;;;25.39;54.91
74594;BME280;63097;51.872;4.460;2022-08-30T08:38:46;102246.28;;;25.39;55.48
74594;BME280;63097;51.872;4.460;2022-08-30T08:43:47;102238.59;;;25.40;55.55
74594;BME280;63097;51.872;4.460;2022-08-30T08:46:27;102241.44;;;25.40;55.57
74594;BME280;63097;51.872;4.460;2022-08-30T08:48:57;102241.44;;;25.40;55.15
74594;BME280;63097;51.872;4.460;2022-08-30T08:51:27;102241.75;;;25.38;55.25
74594;BME280;63097;51.872;4.460;2022-08-30T08:54:05;102237.75;;;25.39;54.98
74594;BME280;63097;51.872;4.460;2022-08-30T08:56:32;102244.28;;;25.40;55.37
74594;BME280;63097;51.872;4.460;2022-08-30T08:58:58;102239.41;;;25.40;55.12
74594;BME280;63097;51.872;4.460;2022-08-30T09:01:27;102242.28;;;25.40;54.70
74594;BME280;63097;51.872;4.460;2022-08-30T09:03:55;102238.59;;;25.40;54.92
74594;BME280;63097;51.872;4.460;2022-08-30T09:06:51;102237.41;;;25.41;54.82
74594;BME280;63097;51.872;4.460;2022-08-30T09:09:22;102240.28;;;25.41;55.00
74594;BME280;63097;51.872;4.460;2022-08-30T09:11:50;102234.56;;;25.41;54.92
74594;BME280;63097;51.872;4.460;2022-08-30T09:14:18;102239.41;;;25.40;55.31
74594;BME280;63097;51.872;4.460;2022-08-30T09:17:12;102241.44;;;25.40;54.88
74594;BME280;63097;51.872;4.460;2022-08-30T09:22:33;102246.81;;;25.41;55.30
74594;BME280;63097;51.872;4.460;2022-08-30T09:25:09;102247.16;;;25.40;54.78
74594;BME280;63097;51.872;4.460;2022-08-30T09:27:45;102254.00;;;25.39;54.68
74594;BME280;63097;51.872;4.460;2022-08-30T09:32:56;102253.66;;;25.40;55.08
74594;BME280;63097;51.872;4.460;2022-08-30T09:35:41;102252.84;;;25.40;54.68
74594;BME280;63097;51.872;4.460;2022-08-30T09:38:28;102253.66;;;25.40;54.93
74594;BME280;63097;51.872;4.460;2022-08-30T09:40:59;102252.84;;;25.40;55.20
74594;BME280;63097;51.872;4.460;2022-08-30T09:43:31;102252.84;;;25.40;54.93
74594;BME280;63097;51.872;4.460;2022-08-30T09:48:36;102250.00;;;25.40;55.00
74594;BME280;63097;51.872;4.460;2022-08-30T09:53:55;102255.38;;;25.41;54.56
74594;BME280;63097;51.872;4.460;2022-08-30T09:59:52;102255.38;;;25.41;54.95
74594;BME280;63097;51.872;4.460;2022-08-30T10:02:40;102251.34;;;25.42;54.57
74594;BME280;63097;51.872;4.460;2022-08-30T10:08:20;102240.28;;;25.41;54.84
74594;BME280;63097;51.872;4.460;2022-08-30T10:11:06;102231.72;;;25.41;54.32
74594;BME280;63097;51.872;4.460;2022-08-30T10:16:42;102240.28;;;25.41;54.31
74594;BME280;63097;51.872;4.460;2022-08-30T10:21:49;102254.19;;;25.42;54.27
74594;BME280;63097;51.872;4.460;2022-08-30T10:24:21;102237.09;;;25.42;54.43
74594;BME280;63097;51.872;4.460;2022-08-30T10:27:04;102250.19;;;25.16;52.24
74594;BME280;63097;51.872;4.460;2022-08-30T10:29:35;102250.81;;;24.86;47.57
74594;BME280;63097;51.872;4.460;2022-08-30T10:32:14;102242.41;;;24.62;46.99
74594;BME280;63097;51.872;4.460;2022-08-30T10:35:05;102247.81;;;24.32;46.89
74594;BME280;63097;51.872;4.460;2022-08-30T10:37:36;102259.75;;;24.15;45.75
74594;BME280;63097;51.872;4.460;2022-08-30T10:40:14;102255.66;;;24.21;46.44
74594;BME280;63097;51.872;4.460;2022-08-30T10:42:41;102253.84;;;24.12;45.37
74594;BME280;63097;51.872;4.460;2022-08-30T10:45:12;102253.91;;;24.07;45.54
74594;BME280;63097;51.872;4.460;2022-08-30T10:47:55;102255.72;;;24.03;45.34
74594;BME280;63097;51.872;4.460;2022-08-30T10:50:28;102247.06;;;24.26;46.73
74594;BME280;63097;51.872;4.460;2022-08-30T10:53:17;102243.81;;;24.33;45.78
74594;BME280;63097;51.872;4.460;2022-08-30T10:55:52;102237.56;;;24.17;45.29
74594;BME280;63097;51.872;4.460;2022-08-30T10:58:18;102244.78;;;23.91;45.68
74594;BME280;63097;51.872;4.460;2022-08-30T11:06:24;102238.84;;;23.87;44.52
74594;BME280;63097;51.872;4.460;2022-08-30T11:14:44;102242.00;;;24.05;44.99
74594;BME280;63097;51.872;4.460;2022-08-30T11:17:26;102232.25;;;24.11;44.23
74594;BME280;63097;51.872;4.460;2022-08-30T11:19:54;102245.75;;;24.00;43.63
74594;BME280;63097;51.872;4.460;2022-08-30T11:22:34;102248.06;;;23.98;43.56
74594;BME280;63097;51.872;4.460;2022-08-30T11:25:15;102241.84;;;23.96;42.49
74594;BME280;63097;51.872;4.460;2022-08-30T11:27:57;102246.44;;;23.92;42.65
74594;BME280;63097;51.872;4.460;2022-08-30T11:33:01;102229.94;;;24.13;42.86
74594;BME280;63097;51.872;4.460;2022-08-30T11:35:47;102228.72;;;24.32;42.60
74594;BME280;63097;51.872;4.460;2022-08-30T11:38:17;102239.63;;;24.12;42.25
74594;BME280;63097;51.872;4.460;2022-08-30T11:41:05;102232.84;;;24.26;42.93
74594;BME280;63097;51.872;4.460;2022-08-30T11:46:15;102227.41;;;24.11;41.29
74594;BME280;63097;51.872;4.460;2022-08-30T12:02:38;102232.34;;;24.06;40.77
74594;BME280;63097;51.872;4.460;2022-08-30T12:05:07;102230.91;;;24.22;42.06
74594;BME280;63097;51.872;4.460;2022-08-30T12:07:57;102228.38;;;24.20;41.27
74594;BME280;63097;51.872;4.460;2022-08-30T12:10:39;102223.34;;;24.17;41.26
74594;BME280;63097;51.872;4.460;2022-08-30T12:13:06;102216.56;;;24.13;41.29
74594;BME280;63097;51.872;4.460;2022-08-30T12:15:54;102214.94;;;24.26;41.40
74594;BME280;63097;51.872;4.460;2022-08-30T12:18:24;102216.00;;;24.43;41.10
74594;BME280;63097;51.872;4.460;2022-08-30T12:20:52;102214.34;;;24.56;41.15
74594;BME280;63097;51.872;4.460;2022-08-30T12:23:48;102213.31;;;24.52;40.31
74594;BME280;63097;51.872;4.460;2022-08-30T12:28:43;102209.88;;;24.36;41.04
74594;BME280;63097;51.872;4.460;2022-08-30T12:31:20;102207.69;;;24.47;41.01
74594;BME280;63097;51.872;4.460;2022-08-30T12:33:55;102211.19;;;24.44;41.25
74594;BME280;63097;51.872;4.460;2022-08-30T12:36:47;102210.31;;;24.43;40.34
74594;BME280;63097;51.872;4.460;2022-08-30T12:39:17;102220.56;;;24.44;39.79
74594;BME280;63097;51.872;4.460;2022-08-30T12:41:43;102212.09;;;24.39;39.49
74594;BME280;63097;51.872;4.460;2022-08-30T12:44:14;102209.94;;;24.50;39.81
74594;BME280;63097;51.872;4.460;2022-08-30T12:46:42;102206.44;;;24.53;40.26
74594;BME280;63097;51.872;4.460;2022-08-30T12:49:09;102201.06;;;24.51;40.05
74594;BME280;63097;51.872;4.460;2022-08-30T12:51:42;102209.19;;;24.58;39.52
74594;BME280;63097;51.872;4.460;2022-08-30T12:54:23;102199.47;;;24.45;38.90
74594;BME280;63097;51.872;4.460;2022-08-30T12:56:58;102198.19;;;24.38;38.75
74594;BME280;63097;51.872;4.460;2022-08-30T12:59:47;102181.88;;;24.43;38.94
74594;BME280;63097;51.872;4.460;2022-08-30T13:02:20;102197.06;;;24.52;38.82
74594;BME280;63097;51.872;4.460;2022-08-30T13:04:46;102187.56;;;24.43;38.68
74594;BME280;63097;51.872;4.460;2022-08-30T13:07:30;102188.84;;;24.51;38.53
74594;BME280;63097;51.872;4.460;2022-08-30T13:10:15;102186.44;;;24.44;38.43
74594;BME280;63097;51.872;4.460;2022-08-30T13:12:57;102188.63;;;24.34;39.18
74594;BME280;63097;51.872;4.460;2022-08-30T13:15:28;102198.19;;;24.38;38.45
74594;BME280;63097;51.872;4.460;2022-08-30T13:18:26;102187.78;;;24.33;39.21
74594;BME280;63097;51.872;4.460;2022-08-30T13:21:28;102185.78;;;24.34;39.04
74594;BME280;63097;51.872;4.460;2022-08-30T13:24:02;102184.94;;;24.33;39.11
74594;BME280;63097;51.872;4.460;2022-08-30T13:26:32;102186.59;;;24.34;38.47
74594;BME280;63097;51.872;4.460;2022-08-30T13:29:01;102184.81;;;24.38;38.56
74594;BME280;63097;51.872;4.460;2022-08-30T13:31:28;102179.69;;;24.54;38.78
74594;BME280;63097;51.872;4.460;2022-08-30T13:33:54;102183.47;;;24.49;38.85
74594;BME280;63097;51.872;4.460;2022-08-30T13:36:24;102188.19;;;24.40;38.95
74594;BME280;63097;51.872;4.460;2022-08-30T13:38:49;102179.66;;;24.40;38.27
74594;BME280;63097;51.872;4.460;2022-08-30T13:41:15;102185.34;;;24.40;38.02
74594;BME280;63097;51.872;4.460;2022-08-30T13:43:40;102174.72;;;24.46;38.03
74594;BME280;63097;51.872;4.460;2022-08-30T13:46:07;102180.41;;;24.46;38.07
74594;BME280;63097;51.872;4.460;2022-08-30T13:48:33;102175.88;;;24.45;38.46
74594;BME280;63097;51.872;4.460;2022-08-30T13:51:00;102180.31;;;24.37;38.98
74594;BME280;63097;51.872;4.460;2022-08-30T13:53:25;102174.69;;;24.32;38.78
74594;BME280;63097;51.872;4.460;2022-08-30T13:55:50;102173.13;;;24.40;39.15
74594;BME280;63097;51.872;4.460;2022-08-30T13:58:16;102162.78;;;24.30;39.51